sensor_id;sensor_type;location;lat;lon;timestamp;P1;durP1;ratioP1;P2;durP2;ratioP2
22814;SDS011;11574;51.058;13.712;2023-06-24T00:01:48;9.37;;;7.17;;
22814;SDS011;11574;51.058;13.712;2023-06-24T00:06:51;9.23;;;7.07;;
22814;SDS011;11574;51.058;13.712;2023-06-24T00:11:59;10.03;;;7.53;;
22814;SDS011;11574;51.058;13.712;2023-06-24T00:17:01;14.70;;;8.90;;
22814;SDS011;11574;51.058;13.712;2023-06-24T00:22:05;10.27;;;7.03;;
22814;SDS011;11574;51.058;13.712;2023-06-24T00:27:07;31.60;;;12.43;;
22814;SDS011;11574;51.058;13.712;2023-06-24T00:32:09;14.53;;;8.90;;
22814;SDS011;11574;51.058;13.712;2023-06-24T00:37:13;15.23;;;8.83;;
22814;SDS011;11574;51.058;13.712;2023-06-24T00:42:15;13.90;;;9.17;;
22814;SDS011;11574;51.058;13.712;2023-06-24T00:47:17;13.80;;;8.37;;
22814;SDS011;11574;51.058;13.712;2023-06-24T00:52:22;13.70;;;9.00;;
22814;SDS011;11574;51.058;13.712;2023-06-24T00:57:24;15.67;;;9.37;;
22814;SDS011;11574;51.058;13.712;2023-06-24T01:02:28;14.37;;;9.50;;
22814;SDS011;11574;51.058;13.712;2023-06-24T01:07:33;10.47;;;8.10;;
22814;SDS011;11574;51.058;13.712;2023-06-24T01:12:38;15.07;;;10.10;;
22814;SDS011;11574;51.058;13.712;2023-06-24T01:17:43;19.97;;;10.57;;
22814;SDS011;11574;51.058;13.712;2023-06-24T01:22:52;15.73;;;9.77;;
22814;SDS011;11574;51.058;13.712;2023-06-24T01:28:05;15.30;;;8.23;;
22814;SDS011;11574;51.058;13.712;2023-06-24T01:33:11;21.40;;;10.50;;
22814;SDS011;11574;51.058;13.712;2023-06-24T01:38:19;14.50;;;9.23;;
22814;SDS011;11574;51.058;13.712;2023-06-24T01:43:24;17.33;;;8.50;;
22814;SDS011;11574;51.058;13.712;2023-06-24T01:48:28;18.13;;;9.40;;
22814;SDS011;11574;51.058;13.712;2023-06-24T01:53:32;19.87;;;10.50;;
22814;SDS011;11574;51.058;13.712;2023-06-24T01:58:35;15.13;;;8.93;;
22814;SDS011;11574;51.058;13.712;2023-06-24T02:03:39;17.63;;;10.57;;
22814;SDS011;11574;51.058;13.712;2023-06-24T02:08:41;15.37;;;9.30;;
22814;SDS011;11574;51.058;13.712;2023-06-24T02:13:44;19.43;;;10.13;;
22814;SDS011;11574;51.058;13.712;2023-06-24T02:18:48;19.70;;;10.50;;
22814;SDS011;11574;51.058;13.712;2023-06-24T02:23:51;18.80;;;11.90;;
22814;SDS011;11574;51.058;13.712;2023-06-24T02:28:54;22.80;;;11.83;;
22814;SDS011;11574;51.058;13.712;2023-06-24T02:33:57;15.27;;;11.33;;
22814;SDS011;11574;51.058;13.712;2023-06-24T02:39:00;19.10;;;11.93;;
22814;SDS011;11574;51.058;13.712;2023-06-24T02:44:02;27.07;;;12.27;;
22814;SDS011;11574;51.058;13.712;2023-06-24T02:49:06;18.17;;;12.67;;
22814;SDS011;11574;51.058;13.712;2023-06-24T02:54:09;15.37;;;11.17;;
22814;SDS011;11574;51.058;13.712;2023-06-24T02:59:12;24.70;;;11.70;;
22814;SDS011;11574;51.058;13.712;2023-06-24T03:04:16;18.40;;;11.67;;
22814;SDS011;11574;51.058;13.712;2023-06-24T03:09:19;21.60;;;11.37;;
22814;SDS011;11574;51.058;13.712;2023-06-24T03:14:21;20.53;;;10.93;;
22814;SDS011;11574;51.058;13.712;2023-06-24T03:19:25;20.33;;;11.27;;
22814;SDS011;11574;51.058;13.712;2023-06-24T03:24:27;17.67;;;10.90;;
22814;SDS011;11574;51.058;13.712;2023-06-24T03:29:29;19.77;;;11.37;;
22814;SDS011;11574;51.058;13.712;2023-06-24T03:34:33;22.27;;;11.83;;
22814;SDS011;11574;51.058;13.712;2023-06-24T03:39:35;16.87;;;11.37;;
22814;SDS011;11574;51.058;13.712;2023-06-24T03:44:37;17.13;;;11.50;;
22814;SDS011;11574;51.058;13.712;2023-06-24T03:49:41;15.20;;;10.43;;
22814;SDS011;11574;51.058;13.712;2023-06-24T03:54:43;18.33;;;9.00;;
22814;SDS011;11574;51.058;13.712;2023-06-24T03:59:46;21.73;;;11.77;;
22814;SDS011;11574;51.058;13.712;2023-06-24T04:04:49;16.83;;;10.80;;
22814;SDS011;11574;51.058;13.712;2023-06-24T04:09:53;18.63;;;9.97;;
22814;SDS011;11574;51.058;13.712;2023-06-24T04:14:55;18.83;;;9.43;;
22814;SDS011;11574;51.058;13.712;2023-06-24T04:19:59;17.47;;;8.33;;
22814;SDS011;11574;51.058;13.712;2023-06-24T04:25:03;14.07;;;7.93;;
22814;SDS011;11574;51.058;13.712;2023-06-24T04:30:06;13.80;;;7.07;;
22814;SDS011;11574;51.058;13.712;2023-06-24T04:35:09;11.80;;;6.53;;
22814;SDS011;11574;51.058;13.712;2023-06-24T04:40:12;16.50;;;7.97;;
22814;SDS011;11574;51.058;13.712;2023-06-24T04:45:17;17.70;;;8.03;;
22814;SDS011;11574;51.058;13.712;2023-06-24T04:50:21;13.70;;;7.33;;
22814;SDS011;11574;51.058;13.712;2023-06-24T04:55:26;14.20;;;8.40;;
22814;SDS011;11574;51.058;13.712;2023-06-24T05:00:34;19.83;;;11.13;;
22814;SDS011;11574;51.058;13.712;2023-06-24T05:05:37;14.37;;;10.37;;
22814;SDS011;11574;51.058;13.712;2023-06-24T05:10:39;18.37;;;11.27;;
22814;SDS011;11574;51.058;13.712;2023-06-24T05:15:42;18.43;;;12.20;;
22814;SDS011;11574;51.058;13.712;2023-06-24T05:20:45;19.13;;;13.90;;
22814;SDS011;11574;51.058;13.712;2023-06-24T05:25:48;24.77;;;14.83;;
22814;SDS011;11574;51.058;13.712;2023-06-24T05:30:50;29.43;;;15.37;;
22814;SDS011;11574;51.058;13.712;2023-06-24T05:35:54;24.73;;;15.17;;
22814;SDS011;11574;51.058;13.712;2023-06-24T05:40:56;23.67;;;13.73;;
22814;SDS011;11574;51.058;13.712;2023-06-24T05:46:03;24.00;;;16.03;;
22814;SDS011;11574;51.058;13.712;2023-06-24T05:51:07;20.77;;;14.80;;
22814;SDS011;11574;51.058;13.712;2023-06-24T05:56:10;26.33;;;16.10;;
22814;SDS011;11574;51.058;13.712;2023-06-24T06:01:14;24.80;;;15.53;;
22814;SDS011;11574;51.058;13.712;2023-06-24T06:06:18;31.63;;;16.70;;
22814;SDS011;11574;51.058;13.712;2023-06-24T06:11:20;26.77;;;15.53;;
22814;SDS011;11574;51.058;13.712;2023-06-24T06:16:22;33.57;;;19.27;;
22814;SDS011;11574;51.058;13.712;2023-06-24T06:21:26;29.67;;;17.97;;
22814;SDS011;11574;51.058;13.712;2023-06-24T06:26:29;23.47;;;15.07;;
22814;SDS011;11574;51.058;13.712;2023-06-24T06:31:31;25.17;;;14.77;;
22814;SDS011;11574;51.058;13.712;2023-06-24T06:36:34;26.33;;;15.00;;
22814;SDS011;11574;51.058;13.712;2023-06-24T06:41:37;28.70;;;15.07;;
22814;SDS011;11574;51.058;13.712;2023-06-24T06:46:39;27.53;;;15.07;;
22814;SDS011;11574;51.058;13.712;2023-06-24T06:51:42;28.13;;;15.17;;
22814;SDS011;11574;51.058;13.712;2023-06-24T06:56:47;25.13;;;16.37;;
22814;SDS011;11574;51.058;13.712;2023-06-24T07:01:49;24.23;;;15.00;;
22814;SDS011;11574;51.058;13.712;2023-06-24T07:06:53;21.63;;;14.33;;
22814;SDS011;11574;51.058;13.712;2023-06-24T07:11:55;22.93;;;12.83;;
22814;SDS011;11574;51.058;13.712;2023-06-24T07:16:57;26.60;;;12.70;;
22814;SDS011;11574;51.058;13.712;2023-06-24T07:22:01;21.50;;;11.80;;
22814;SDS011;11574;51.058;13.712;2023-06-24T07:27:03;17.00;;;12.43;;
22814;SDS011;11574;51.058;13.712;2023-06-24T07:32:06;17.80;;;10.47;;
22814;SDS011;11574;51.058;13.712;2023-06-24T07:37:09;19.73;;;11.07;;
22814;SDS011;11574;51.058;13.712;2023-06-24T07:42:12;18.17;;;10.43;;
22814;SDS011;11574;51.058;13.712;2023-06-24T07:47:18;16.03;;;8.73;;
22814;SDS011;11574;51.058;13.712;2023-06-24T07:52:22;12.17;;;8.30;;
22814;SDS011;11574;51.058;13.712;2023-06-24T07:57:26;18.47;;;9.27;;
22814;SDS011;11574;51.058;13.712;2023-06-24T08:02:28;18.17;;;9.03;;
22814;SDS011;11574;51.058;13.712;2023-06-24T08:07:32;12.50;;;8.50;;
22814;SDS011;11574;51.058;13.712;2023-06-24T08:12:34;12.40;;;7.90;;
22814;SDS011;11574;51.058;13.712;2023-06-24T08:17:36;15.77;;;8.07;;
22814;SDS011;11574;51.058;13.712;2023-06-24T08:22:40;10.53;;;7.73;;
22814;SDS011;11574;51.058;13.712;2023-06-24T08:27:42;11.03;;;7.00;;
22814;SDS011;11574;51.058;13.712;2023-06-24T08:32:46;12.00;;;6.80;;
22814;SDS011;11574;51.058;13.712;2023-06-24T08:37:50;11.47;;;6.17;;
22814;SDS011;11574;51.058;13.712;2023-06-24T08:42:52;14.10;;;8.07;;
22814;SDS011;11574;51.058;13.712;2023-06-24T08:47:55;10.43;;;6.63;;
22814;SDS011;11574;51.058;13.712;2023-06-24T08:52:59;9.33;;;6.17;;
22814;SDS011;11574;51.058;13.712;2023-06-24T08:58:03;7.60;;;4.40;;
22814;SDS011;11574;51.058;13.712;2023-06-24T09:03:06;10.00;;;4.50;;
22814;SDS011;11574;51.058;13.712;2023-06-24T09:08:09;7.67;;;4.47;;
22814;SDS011;11574;51.058;13.712;2023-06-24T09:13:11;8.95;;;5.00;;
22814;SDS011;11574;51.058;13.712;2023-06-24T09:18:14;5.43;;;4.40;;
22814;SDS011;11574;51.058;13.712;2023-06-24T09:23:18;11.88;;;5.10;;
22814;SDS011;11574;51.058;13.712;2023-06-24T09:28:20;13.57;;;4.63;;
22814;SDS011;11574;51.058;13.712;2023-06-24T09:33:22;6.80;;;4.32;;
22814;SDS011;11574;51.058;13.712;2023-06-24T09:38:33;10.38;;;4.43;;
22814;SDS011;11574;51.058;13.712;2023-06-24T09:43:35;5.78;;;4.13;;
22814;SDS011;11574;51.058;13.712;2023-06-24T09:48:39;6.10;;;3.97;;
22814;SDS011;11574;51.058;13.712;2023-06-24T09:53:43;8.30;;;4.60;;
22814;SDS011;11574;51.058;13.712;2023-06-24T09:58:46;7.60;;;3.90;;
22814;SDS011;11574;51.058;13.712;2023-06-24T10:03:48;6.55;;;4.15;;
22814;SDS011;11574;51.058;13.712;2023-06-24T10:08:52;7.25;;;4.25;;
22814;SDS011;11574;51.058;13.712;2023-06-24T10:13:54;5.85;;;4.30;;
22814;SDS011;11574;51.058;13.712;2023-06-24T10:18:59;8.82;;;4.35;;
22814;SDS011;11574;51.058;13.712;2023-06-24T10:24:04;14.80;;;6.68;;
22814;SDS011;11574;51.058;13.712;2023-06-24T10:29:09;6.38;;;4.70;;
22814;SDS011;11574;51.058;13.712;2023-06-24T10:34:20;11.73;;;7.37;;
22814;SDS011;11574;51.058;13.712;2023-06-24T10:39:39;5.57;;;4.00;;
22814;SDS011;11574;51.058;13.712;2023-06-24T10:44:44;5.40;;;4.17;;
22814;SDS011;11574;51.058;13.712;2023-06-24T10:49:46;5.80;;;4.00;;
22814;SDS011;11574;51.058;13.712;2023-06-24T10:54:50;9.05;;;4.40;;
22814;SDS011;11574;51.058;13.712;2023-06-24T10:59:53;5.47;;;3.87;;
22814;SDS011;11574;51.058;13.712;2023-06-24T11:04:57;7.95;;;4.05;;
22814;SDS011;11574;51.058;13.712;2023-06-24T11:10:02;8.80;;;4.13;;
22814;SDS011;11574;51.058;13.712;2023-06-24T11:15:05;9.50;;;4.22;;
22814;SDS011;11574;51.058;13.712;2023-06-24T11:20:08;10.43;;;4.60;;
22814;SDS011;11574;51.058;13.712;2023-06-24T11:25:16;6.20;;;4.53;;
22814;SDS011;11574;51.058;13.712;2023-06-24T11:30:18;5.75;;;4.35;;
22814;SDS011;11574;51.058;13.712;2023-06-24T11:35:20;7.15;;;4.50;;
22814;SDS011;11574;51.058;13.712;2023-06-24T11:40:24;8.85;;;4.68;;
22814;SDS011;11574;51.058;13.712;2023-06-24T11:45:26;8.13;;;4.30;;
22814;SDS011;11574;51.058;13.712;2023-06-24T11:50:28;5.90;;;4.03;;
22814;SDS011;11574;51.058;13.712;2023-06-24T11:55:32;6.65;;;4.20;;
22814;SDS011;11574;51.058;13.712;2023-06-24T12:00:35;6.80;;;3.85;;
22814;SDS011;11574;51.058;13.712;2023-06-24T12:05:37;6.20;;;4.15;;
22814;SDS011;11574;51.058;13.712;2023-06-24T12:10:46;9.73;;;4.88;;
22814;SDS011;11574;51.058;13.712;2023-06-24T12:15:48;8.75;;;4.68;;
22814;SDS011;11574;51.058;13.712;2023-06-24T12:20:51;5.03;;;3.90;;
22814;SDS011;11574;51.058;13.712;2023-06-24T12:25:54;7.57;;;4.47;;
22814;SDS011;11574;51.058;13.712;2023-06-24T12:30:56;8.02;;;5.28;;
22814;SDS011;11574;51.058;13.712;2023-06-24T12:35:58;9.88;;;4.30;;
22814;SDS011;11574;51.058;13.712;2023-06-24T12:41:02;8.05;;;4.30;;
22814;SDS011;11574;51.058;13.712;2023-06-24T12:46:04;5.63;;;4.20;;
22814;SDS011;11574;51.058;13.712;2023-06-24T12:51:07;5.72;;;4.45;;
22814;SDS011;11574;51.058;13.712;2023-06-24T12:56:10;5.10;;;4.50;;
22814;SDS011;11574;51.058;13.712;2023-06-24T13:01:12;7.72;;;4.47;;
22814;SDS011;11574;51.058;13.712;2023-06-24T13:06:15;10.48;;;5.25;;
22814;SDS011;11574;51.058;13.712;2023-06-24T13:11:18;6.50;;;4.30;;
22814;SDS011;11574;51.058;13.712;2023-06-24T13:16:21;9.98;;;4.15;;
22814;SDS011;11574;51.058;13.712;2023-06-24T13:21:23;6.57;;;4.60;;
22814;SDS011;11574;51.058;13.712;2023-06-24T13:26:27;8.48;;;4.05;;
22814;SDS011;11574;51.058;13.712;2023-06-24T13:31:29;8.20;;;3.97;;
22814;SDS011;11574;51.058;13.712;2023-06-24T13:36:32;7.00;;;3.90;;
22814;SDS011;11574;51.058;13.712;2023-06-24T13:41:37;9.27;;;4.18;;
22814;SDS011;11574;51.058;13.712;2023-06-24T13:46:40;5.13;;;3.67;;
22814;SDS011;11574;51.058;13.712;2023-06-24T13:51:42;3.97;;;3.50;;
22814;SDS011;11574;51.058;13.712;2023-06-24T13:56:46;10.82;;;3.63;;
22814;SDS011;11574;51.058;13.712;2023-06-24T14:01:48;4.88;;;3.35;;
22814;SDS011;11574;51.058;13.712;2023-06-24T14:06:50;8.25;;;3.55;;
22814;SDS011;11574;51.058;13.712;2023-06-24T14:11:54;5.22;;;3.60;;
22814;SDS011;11574;51.058;13.712;2023-06-24T14:16:57;6.75;;;3.55;;
22814;SDS011;11574;51.058;13.712;2023-06-24T14:21:59;9.90;;;3.60;;
22814;SDS011;11574;51.058;13.712;2023-06-24T14:27:03;8.60;;;3.80;;
22814;SDS011;11574;51.058;13.712;2023-06-24T14:32:05;8.82;;;3.67;;
22814;SDS011;11574;51.058;13.712;2023-06-24T14:37:07;5.00;;;3.50;;
22814;SDS011;11574;51.058;13.712;2023-06-24T14:42:11;6.00;;;3.80;;
22814;SDS011;11574;51.058;13.712;2023-06-24T14:47:13;6.68;;;3.30;;
22814;SDS011;11574;51.058;13.712;2023-06-24T14:52:16;4.78;;;3.13;;
22814;SDS011;11574;51.058;13.712;2023-06-24T14:57:20;9.40;;;3.92;;
22814;SDS011;11574;51.058;13.712;2023-06-24T15:02:23;9.05;;;3.50;;
22814;SDS011;11574;51.058;13.712;2023-06-24T15:07:26;3.42;;;3.10;;
22814;SDS011;11574;51.058;13.712;2023-06-24T15:12:29;4.60;;;3.60;;
22814;SDS011;11574;51.058;13.712;2023-06-24T15:17:32;7.30;;;3.78;;
22814;SDS011;11574;51.058;13.712;2023-06-24T15:22:35;3.80;;;3.13;;
22814;SDS011;11574;51.058;13.712;2023-06-24T15:27:39;5.28;;;3.30;;
22814;SDS011;11574;51.058;13.712;2023-06-24T15:32:41;4.95;;;3.42;;
22814;SDS011;11574;51.058;13.712;2023-06-24T15:37:45;17.10;;;4.10;;
22814;SDS011;11574;51.058;13.712;2023-06-24T15:42:49;7.25;;;3.60;;
22814;SDS011;11574;51.058;13.712;2023-06-24T15:47:51;4.97;;;3.42;;
22814;SDS011;11574;51.058;13.712;2023-06-24T15:52:55;7.50;;;3.42;;
22814;SDS011;11574;51.058;13.712;2023-06-24T15:57:59;7.32;;;3.80;;
22814;SDS011;11574;51.058;13.712;2023-06-24T16:03:01;4.28;;;3.85;;
22814;SDS011;11574;51.058;13.712;2023-06-24T16:08:04;7.80;;;3.75;;
22814;SDS011;11574;51.058;13.712;2023-06-24T16:13:07;4.80;;;3.80;;
22814;SDS011;11574;51.058;13.712;2023-06-24T16:18:10;4.35;;;3.45;;
22814;SDS011;11574;51.058;13.712;2023-06-24T16:23:12;3.97;;;3.10;;
22814;SDS011;11574;51.058;13.712;2023-06-24T16:28:15;5.03;;;3.38;;
22814;SDS011;11574;51.058;13.712;2023-06-24T16:33:17;3.90;;;3.28;;
22814;SDS011;11574;51.058;13.712;2023-06-24T16:38:20;10.45;;;4.07;;
22814;SDS011;11574;51.058;13.712;2023-06-24T16:43:23;5.55;;;3.30;;
22814;SDS011;11574;51.058;13.712;2023-06-24T16:48:25;5.32;;;3.45;;
22814;SDS011;11574;51.058;13.712;2023-06-24T16:53:28;3.67;;;3.05;;
22814;SDS011;11574;51.058;13.712;2023-06-24T16:58:31;4.78;;;3.58;;
22814;SDS011;11574;51.058;13.712;2023-06-24T17:03:34;5.78;;;3.45;;
22814;SDS011;11574;51.058;13.712;2023-06-24T17:08:36;4.80;;;3.10;;
22814;SDS011;11574;51.058;13.712;2023-06-24T17:13:39;9.95;;;3.53;;
22814;SDS011;11574;51.058;13.712;2023-06-24T17:18:42;4.68;;;3.40;;
22814;SDS011;11574;51.058;13.712;2023-06-24T17:23:44;6.60;;;3.50;;
22814;SDS011;11574;51.058;13.712;2023-06-24T17:28:47;10.27;;;3.60;;
22814;SDS011;11574;51.058;13.712;2023-06-24T17:33:50;5.10;;;3.38;;
22814;SDS011;11574;51.058;13.712;2023-06-24T17:38:52;7.07;;;3.65;;
22814;SDS011;11574;51.058;13.712;2023-06-24T17:43:56;5.43;;;4.10;;
22814;SDS011;11574;51.058;13.712;2023-06-24T17:48:58;4.43;;;3.67;;
22814;SDS011;11574;51.058;13.712;2023-06-24T17:54:00;4.30;;;3.50;;
22814;SDS011;11574;51.058;13.712;2023-06-24T17:59:04;6.03;;;3.80;;
22814;SDS011;11574;51.058;13.712;2023-06-24T18:04:06;5.25;;;3.83;;
22814;SDS011;11574;51.058;13.712;2023-06-24T18:09:09;6.47;;;3.83;;
22814;SDS011;11574;51.058;13.712;2023-06-24T18:14:13;9.77;;;4.20;;
22814;SDS011;11574;51.058;13.712;2023-06-24T18:19:16;7.13;;;3.63;;
22814;SDS011;11574;51.058;13.712;2023-06-24T18:24:18;4.47;;;3.78;;
22814;SDS011;11574;51.058;13.712;2023-06-24T18:29:22;4.90;;;3.80;;
22814;SDS011;11574;51.058;13.712;2023-06-24T18:34:24;8.52;;;3.95;;
22814;SDS011;11574;51.058;13.712;2023-06-24T18:39:27;7.03;;;4.00;;
22814;SDS011;11574;51.058;13.712;2023-06-24T18:44:31;7.70;;;3.67;;
22814;SDS011;11574;51.058;13.712;2023-06-24T18:49:33;5.15;;;3.85;;
22814;SDS011;11574;51.058;13.712;2023-06-24T18:54:35;6.53;;;3.72;;
22814;SDS011;11574;51.058;13.712;2023-06-24T18:59:38;5.95;;;4.15;;
22814;SDS011;11574;51.058;13.712;2023-06-24T19:04:41;6.25;;;4.03;;
22814;SDS011;11574;51.058;13.712;2023-06-24T19:09:43;5.38;;;4.32;;
22814;SDS011;11574;51.058;13.712;2023-06-24T19:14:48;8.87;;;4.43;;
22814;SDS011;11574;51.058;13.712;2023-06-24T19:19:50;6.38;;;4.68;;
22814;SDS011;11574;51.058;13.712;2023-06-24T19:24:52;6.97;;;4.10;;
22814;SDS011;11574;51.058;13.712;2023-06-24T19:29:56;6.50;;;4.63;;
22814;SDS011;11574;51.058;13.712;2023-06-24T19:34:58;6.03;;;4.60;;
22814;SDS011;11574;51.058;13.712;2023-06-24T19:40:01;8.43;;;5.37;;
22814;SDS011;11574;51.058;13.712;2023-06-24T19:45:06;6.30;;;4.63;;
22814;SDS011;11574;51.058;13.712;2023-06-24T19:50:09;8.33;;;4.90;;
22814;SDS011;11574;51.058;13.712;2023-06-24T19:55:11;4.90;;;4.40;;
22814;SDS011;11574;51.058;13.712;2023-06-24T20:00:15;6.30;;;4.77;;
22814;SDS011;11574;51.058;13.712;2023-06-24T20:05:17;7.03;;;5.50;;
22814;SDS011;11574;51.058;13.712;2023-06-24T20:10:20;5.72;;;4.97;;
22814;SDS011;11574;51.058;13.712;2023-06-24T20:15:23;5.80;;;5.10;;
22814;SDS011;11574;51.058;13.712;2023-06-24T20:20:25;10.30;;;6.40;;
22814;SDS011;11574;51.058;13.712;2023-06-24T20:25:27;10.57;;;5.97;;
22814;SDS011;11574;51.058;13.712;2023-06-24T20:30:31;9.37;;;6.20;;
22814;SDS011;11574;51.058;13.712;2023-06-24T20:35:34;22.87;;;6.27;;
22814;SDS011;11574;51.058;13.712;2023-06-24T20:40:39;8.87;;;6.83;;
22814;SDS011;11574;51.058;13.712;2023-06-24T20:45:42;10.33;;;7.83;;
22814;SDS011;11574;51.058;13.712;2023-06-24T20:50:45;9.43;;;7.00;;
22814;SDS011;11574;51.058;13.712;2023-06-24T20:55:47;11.60;;;8.00;;
22814;SDS011;11574;51.058;13.712;2023-06-24T21:00:50;8.27;;;6.40;;
22814;SDS011;11574;51.058;13.712;2023-06-24T21:05:53;9.50;;;7.40;;
22814;SDS011;11574;51.058;13.712;2023-06-24T21:10:55;9.50;;;8.40;;
22814;SDS011;11574;51.058;13.712;2023-06-24T21:15:59;11.63;;;7.37;;
22814;SDS011;11574;51.058;13.712;2023-06-24T21:21:01;12.17;;;7.90;;
22814;SDS011;11574;51.058;13.712;2023-06-24T21:26:03;14.67;;;9.97;;
22814;SDS011;11574;51.058;13.712;2023-06-24T21:31:07;14.67;;;10.53;;
22814;SDS011;11574;51.058;13.712;2023-06-24T21:36:09;15.80;;;10.37;;
22814;SDS011;11574;51.058;13.712;2023-06-24T21:41:12;15.77;;;12.27;;
22814;SDS011;11574;51.058;13.712;2023-06-24T21:46:15;13.60;;;8.93;;
22814;SDS011;11574;51.058;13.712;2023-06-24T21:51:17;10.83;;;8.27;;
22814;SDS011;11574;51.058;13.712;2023-06-24T21:56:19;15.97;;;9.00;;
22814;SDS011;11574;51.058;13.712;2023-06-24T22:01:23;13.93;;;9.80;;
22814;SDS011;11574;51.058;13.712;2023-06-24T22:06:25;11.23;;;8.70;;
22814;SDS011;11574;51.058;13.712;2023-06-24T22:11:27;11.65;;;9.02;;
22814;SDS011;11574;51.058;13.712;2023-06-24T22:16:31;12.20;;;7.40;;
22814;SDS011;11574;51.058;13.712;2023-06-24T22:21:33;10.07;;;7.80;;
22814;SDS011;11574;51.058;13.712;2023-06-24T22:26:35;11.43;;;8.23;;
22814;SDS011;11574;51.058;13.712;2023-06-24T22:31:39;10.77;;;7.33;;
22814;SDS011;11574;51.058;13.712;2023-06-24T22:36:41;11.90;;;6.63;;
22814;SDS011;11574;51.058;13.712;2023-06-24T22:41:43;12.80;;;7.40;;
22814;SDS011;11574;51.058;13.712;2023-06-24T22:46:47;8.80;;;7.17;;
22814;SDS011;11574;51.058;13.712;2023-06-24T22:51:49;8.70;;;6.80;;
22814;SDS011;11574;51.058;13.712;2023-06-24T22:56:51;12.73;;;7.73;;
22814;SDS011;11574;51.058;13.712;2023-06-24T23:01:56;11.93;;;7.30;;
22814;SDS011;11574;51.058;13.712;2023-06-24T23:06:58;10.83;;;8.00;;
22814;SDS011;11574;51.058;13.712;2023-06-24T23:12:01;9.73;;;7.37;;
22814;SDS011;11574;51.058;13.712;2023-06-24T23:17:06;11.13;;;7.83;;
22814;SDS011;11574;51.058;13.712;2023-06-24T23:22:09;11.80;;;8.53;;
22814;SDS011;11574;51.058;13.712;2023-06-24T23:27:13;14.93;;;7.90;;
22814;SDS011;11574;51.058;13.712;2023-06-24T23:32:17;10.83;;;8.23;;
22814;SDS011;11574;51.058;13.712;2023-06-24T23:37:20;14.03;;;8.83;;
22814;SDS011;11574;51.058;13.712;2023-06-24T23:42:22;14.57;;;8.63;;
22814;SDS011;11574;51.058;13.712;2023-06-24T23:47:27;13.87;;;8.30;;
22814;SDS011;11574;51.058;13.712;2023-06-24T23:52:29;12.60;;;8.60;;
22814;SDS011;11574;51.058;13.712;2023-06-24T23:57:31;12.50;;;8.53;;
